sensor_id;sensor_type;location;lat;lon;timestamp;P1;durP1;ratioP1;P2;durP2;ratioP2
25409;SDS011;13339;50.840;4.346;2023-06-22T00:02:12;5.37;;;3.87;;
25409;SDS011;13339;50.840;4.346;2023-06-22T00:04:38;8.50;;;3.70;;
25409;SDS011;13339;50.840;4.346;2023-06-22T00:07:04;6.10;;;3.70;;
25409;SDS011;13339;50.840;4.346;2023-06-22T00:09:30;5.27;;;3.80;;
25409;SDS011;13339;50.840;4.346;2023-06-22T00:11:56;6.00;;;3.80;;
25409;SDS011;13339;50.840;4.346;2023-06-22T00:14:22;4.80;;;3.87;;
25409;SDS011;13339;50.840;4.346;2023-06-22T00:16:47;7.83;;;3.87;;
25409;SDS011;13339;50.840;4.346;2023-06-22T00:19:14;5.63;;;4.07;;
25409;SDS011;13339;50.840;4.346;2023-06-22T00:21:40;5.47;;;4.07;;
25409;SDS011;13339;50.840;4.346;2023-06-22T00:24:07;5.13;;;3.93;;
25409;SDS011;13339;50.840;4.346;2023-06-22T00:26:33;5.80;;;3.97;;
25409;SDS011;13339;50.840;4.346;2023-06-22T00:29:00;4.73;;;3.93;;
25409;SDS011;13339;50.840;4.346;2023-06-22T00:31:25;5.17;;;4.27;;
25409;SDS011;13339;50.840;4.346;2023-06-22T00:33:51;8.73;;;4.40;;
25409;SDS011;13339;50.840;4.346;2023-06-22T00:36:16;6.07;;;4.10;;
25409;SDS011;13339;50.840;4.346;2023-06-22T00:38:42;5.27;;;4.03;;
25409;SDS011;13339;50.840;4.346;2023-06-22T00:41:08;6.77;;;4.33;;
25409;SDS011;13339;50.840;4.346;2023-06-22T00:43:34;7.83;;;4.37;;
25409;SDS011;13339;50.840;4.346;2023-06-22T00:46:00;5.33;;;4.00;;
25409;SDS011;13339;50.840;4.346;2023-06-22T00:48:25;5.70;;;4.23;;
25409;SDS011;13339;50.840;4.346;2023-06-22T00:50:51;7.27;;;4.93;;
25409;SDS011;13339;50.840;4.346;2023-06-22T00:53:18;6.97;;;5.20;;
25409;SDS011;13339;50.840;4.346;2023-06-22T00:55:45;7.83;;;5.17;;
25409;SDS011;13339;50.840;4.346;2023-06-22T00:58:16;6.50;;;5.23;;
25409;SDS011;13339;50.840;4.346;2023-06-22T01:00:46;7.00;;;5.20;;
25409;SDS011;13339;50.840;4.346;2023-06-22T01:03:13;6.67;;;5.50;;
25409;SDS011;13339;50.840;4.346;2023-06-22T01:05:39;8.00;;;5.50;;
25409;SDS011;13339;50.840;4.346;2023-06-22T01:16:27;6.37;;;4.97;;
25409;SDS011;13339;50.840;4.346;2023-06-22T01:19:06;8.97;;;5.00;;
25409;SDS011;13339;50.840;4.346;2023-06-22T01:21:47;6.67;;;4.90;;
25409;SDS011;13339;50.840;4.346;2023-06-22T01:24:30;7.07;;;5.50;;
25409;SDS011;13339;50.840;4.346;2023-06-22T01:27:23;5.87;;;5.07;;
25409;SDS011;13339;50.840;4.346;2023-06-22T01:29:57;7.60;;;5.70;;
25409;SDS011;13339;50.840;4.346;2023-06-22T01:32:29;7.17;;;5.43;;
25409;SDS011;13339;50.840;4.346;2023-06-22T01:34:57;5.90;;;5.07;;
25409;SDS011;13339;50.840;4.346;2023-06-22T01:37:25;8.07;;;5.87;;
25409;SDS011;13339;50.840;4.346;2023-06-22T01:39:52;7.17;;;5.43;;
25409;SDS011;13339;50.840;4.346;2023-06-22T01:42:20;6.97;;;5.63;;
25409;SDS011;13339;50.840;4.346;2023-06-22T01:44:46;8.77;;;6.03;;
25409;SDS011;13339;50.840;4.346;2023-06-22T01:47:12;7.97;;;5.77;;
25409;SDS011;13339;50.840;4.346;2023-06-22T01:49:39;5.87;;;5.20;;
25409;SDS011;13339;50.840;4.346;2023-06-22T01:52:06;7.50;;;5.47;;
25409;SDS011;13339;50.840;4.346;2023-06-22T01:54:32;8.97;;;5.60;;
25409;SDS011;13339;50.840;4.346;2023-06-22T01:56:58;6.73;;;5.70;;
25409;SDS011;13339;50.840;4.346;2023-06-22T02:02:16;10.07;;;6.73;;
25409;SDS011;13339;50.840;4.346;2023-06-22T02:04:51;7.60;;;5.50;;
25409;SDS011;13339;50.840;4.346;2023-06-22T02:07:33;7.70;;;5.97;;
25409;SDS011;13339;50.840;4.346;2023-06-22T02:10:04;6.50;;;5.83;;
25409;SDS011;13339;50.840;4.346;2023-06-22T02:12:32;8.33;;;6.10;;
25409;SDS011;13339;50.840;4.346;2023-06-22T02:15:00;7.37;;;5.20;;
25409;SDS011;13339;50.840;4.346;2023-06-22T02:17:26;6.77;;;5.37;;
25409;SDS011;13339;50.840;4.346;2023-06-22T02:19:52;7.27;;;5.40;;
25409;SDS011;13339;50.840;4.346;2023-06-22T02:22:18;9.23;;;5.40;;
25409;SDS011;13339;50.840;4.346;2023-06-22T02:24:44;6.97;;;5.23;;
25409;SDS011;13339;50.840;4.346;2023-06-22T02:27:10;8.33;;;5.63;;
25409;SDS011;13339;50.840;4.346;2023-06-22T02:29:36;6.90;;;5.37;;
25409;SDS011;13339;50.840;4.346;2023-06-22T02:32:02;6.90;;;4.93;;
25409;SDS011;13339;50.840;4.346;2023-06-22T02:34:29;5.93;;;4.87;;
25409;SDS011;13339;50.840;4.346;2023-06-22T02:36:54;10.57;;;5.73;;
25409;SDS011;13339;50.840;4.346;2023-06-22T02:39:20;9.17;;;6.20;;
25409;SDS011;13339;50.840;4.346;2023-06-22T02:41:48;7.27;;;5.83;;
25409;SDS011;13339;50.840;4.346;2023-06-22T02:44:19;8.93;;;6.13;;
25409;SDS011;13339;50.840;4.346;2023-06-22T02:46:45;6.87;;;5.90;;
25409;SDS011;13339;50.840;4.346;2023-06-22T02:49:12;8.27;;;5.87;;
25409;SDS011;13339;50.840;4.346;2023-06-22T02:51:42;10.33;;;6.03;;
25409;SDS011;13339;50.840;4.346;2023-06-22T02:54:10;7.90;;;6.10;;
25409;SDS011;13339;50.840;4.346;2023-06-22T02:56:36;6.80;;;5.83;;
25409;SDS011;13339;50.840;4.346;2023-06-22T02:59:02;9.13;;;6.17;;
25409;SDS011;13339;50.840;4.346;2023-06-22T03:01:28;10.30;;;6.30;;
25409;SDS011;13339;50.840;4.346;2023-06-22T03:03:55;9.03;;;6.23;;
25409;SDS011;13339;50.840;4.346;2023-06-22T03:06:21;6.87;;;5.87;;
25409;SDS011;13339;50.840;4.346;2023-06-22T03:08:48;9.70;;;6.17;;
25409;SDS011;13339;50.840;4.346;2023-06-22T03:11:17;8.43;;;6.53;;
25409;SDS011;13339;50.840;4.346;2023-06-22T03:13:43;13.53;;;6.77;;
25409;SDS011;13339;50.840;4.346;2023-06-22T03:16:08;7.80;;;6.30;;
25409;SDS011;13339;50.840;4.346;2023-06-22T03:18:34;7.00;;;5.93;;
25409;SDS011;13339;50.840;4.346;2023-06-22T03:21:00;9.33;;;6.03;;
25409;SDS011;13339;50.840;4.346;2023-06-22T03:23:27;11.10;;;6.47;;
25409;SDS011;13339;50.840;4.346;2023-06-22T03:25:52;9.33;;;6.07;;
25409;SDS011;13339;50.840;4.346;2023-06-22T03:28:20;8.47;;;5.93;;
25409;SDS011;13339;50.840;4.346;2023-06-22T03:30:46;8.23;;;6.30;;
25409;SDS011;13339;50.840;4.346;2023-06-22T03:33:12;7.77;;;6.23;;
25409;SDS011;13339;50.840;4.346;2023-06-22T03:35:37;8.20;;;6.30;;
25409;SDS011;13339;50.840;4.346;2023-06-22T03:38:03;10.57;;;6.63;;
25409;SDS011;13339;50.840;4.346;2023-06-22T03:40:29;12.47;;;6.43;;
25409;SDS011;13339;50.840;4.346;2023-06-22T03:42:55;9.50;;;6.00;;
25409;SDS011;13339;50.840;4.346;2023-06-22T03:45:20;8.90;;;6.80;;
25409;SDS011;13339;50.840;4.346;2023-06-22T03:47:46;13.63;;;6.60;;
25409;SDS011;13339;50.840;4.346;2023-06-22T03:50:12;9.23;;;6.83;;
25409;SDS011;13339;50.840;4.346;2023-06-22T03:52:38;9.03;;;6.90;;
25409;SDS011;13339;50.840;4.346;2023-06-22T03:55:05;11.67;;;7.87;;
25409;SDS011;13339;50.840;4.346;2023-06-22T03:57:31;12.50;;;7.57;;
25409;SDS011;13339;50.840;4.346;2023-06-22T03:59:57;12.40;;;9.03;;
25409;SDS011;13339;50.840;4.346;2023-06-22T04:02:23;13.27;;;8.57;;
25409;SDS011;13339;50.840;4.346;2023-06-22T04:04:48;14.13;;;8.50;;
25409;SDS011;13339;50.840;4.346;2023-06-22T04:07:14;16.73;;;9.30;;
25409;SDS011;13339;50.840;4.346;2023-06-22T04:09:40;12.27;;;8.63;;
25409;SDS011;13339;50.840;4.346;2023-06-22T04:12:05;14.97;;;9.67;;
25409;SDS011;13339;50.840;4.346;2023-06-22T04:14:31;17.90;;;9.77;;
25409;SDS011;13339;50.840;4.346;2023-06-22T04:16:57;19.17;;;9.93;;
25409;SDS011;13339;50.840;4.346;2023-06-22T04:19:23;13.80;;;9.20;;
25409;SDS011;13339;50.840;4.346;2023-06-22T04:21:49;13.07;;;9.53;;
25409;SDS011;13339;50.840;4.346;2023-06-22T04:24:14;19.70;;;10.50;;
25409;SDS011;13339;50.840;4.346;2023-06-22T04:26:40;14.23;;;10.00;;
25409;SDS011;13339;50.840;4.346;2023-06-22T04:29:10;13.37;;;9.87;;
25409;SDS011;13339;50.840;4.346;2023-06-22T04:31:36;14.43;;;9.93;;
25409;SDS011;13339;50.840;4.346;2023-06-22T04:34:03;17.40;;;9.67;;
25409;SDS011;13339;50.840;4.346;2023-06-22T04:36:37;15.97;;;9.97;;
25409;SDS011;13339;50.840;4.346;2023-06-22T04:39:08;16.67;;;10.63;;
25409;SDS011;13339;50.840;4.346;2023-06-22T04:41:43;14.43;;;9.67;;
25409;SDS011;13339;50.840;4.346;2023-06-22T04:46:35;10.50;;;9.30;;
25409;SDS011;13339;50.840;4.346;2023-06-22T04:49:04;12.83;;;9.23;;
25409;SDS011;13339;50.840;4.346;2023-06-22T04:51:31;14.90;;;10.77;;
25409;SDS011;13339;50.840;4.346;2023-06-22T04:53:57;17.07;;;11.30;;
25409;SDS011;13339;50.840;4.346;2023-06-22T04:56:26;15.03;;;10.70;;
25409;SDS011;13339;50.840;4.346;2023-06-22T04:58:54;15.17;;;11.13;;
25409;SDS011;13339;50.840;4.346;2023-06-22T05:01:22;15.77;;;10.83;;
25409;SDS011;13339;50.840;4.346;2023-06-22T05:03:48;18.97;;;11.30;;
25409;SDS011;13339;50.840;4.346;2023-06-22T05:06:14;23.63;;;12.63;;
25409;SDS011;13339;50.840;4.346;2023-06-22T05:08:40;19.97;;;10.90;;
25409;SDS011;13339;50.840;4.346;2023-06-22T05:11:06;20.27;;;12.83;;
25409;SDS011;13339;50.840;4.346;2023-06-22T05:13:32;15.17;;;10.63;;
25409;SDS011;13339;50.840;4.346;2023-06-22T05:15:58;20.03;;;11.57;;
25409;SDS011;13339;50.840;4.346;2023-06-22T05:18:29;20.40;;;12.10;;
25409;SDS011;13339;50.840;4.346;2023-06-22T05:20:56;21.87;;;12.00;;
25409;SDS011;13339;50.840;4.346;2023-06-22T05:23:22;18.53;;;12.73;;
25409;SDS011;13339;50.840;4.346;2023-06-22T05:25:48;17.80;;;12.73;;
25409;SDS011;13339;50.840;4.346;2023-06-22T05:28:14;17.73;;;12.53;;
25409;SDS011;13339;50.840;4.346;2023-06-22T05:30:39;17.10;;;12.70;;
25409;SDS011;13339;50.840;4.346;2023-06-22T05:33:05;19.43;;;13.87;;
25409;SDS011;13339;50.840;4.346;2023-06-22T05:35:30;23.87;;;13.67;;
25409;SDS011;13339;50.840;4.346;2023-06-22T05:37:56;16.17;;;12.97;;
25409;SDS011;13339;50.840;4.346;2023-06-22T05:40:22;25.47;;;14.10;;
25409;SDS011;13339;50.840;4.346;2023-06-22T05:42:47;16.93;;;13.37;;
25409;SDS011;13339;50.840;4.346;2023-06-22T05:45:13;19.93;;;14.10;;
25409;SDS011;13339;50.840;4.346;2023-06-22T05:47:39;20.83;;;15.17;;
25409;SDS011;13339;50.840;4.346;2023-06-22T05:50:05;20.50;;;15.77;;
25409;SDS011;13339;50.840;4.346;2023-06-22T05:52:33;22.13;;;14.47;;
25409;SDS011;13339;50.840;4.346;2023-06-22T05:54:58;21.70;;;14.70;;
25409;SDS011;13339;50.840;4.346;2023-06-22T05:57:24;21.00;;;16.10;;
25409;SDS011;13339;50.840;4.346;2023-06-22T05:59:49;25.23;;;14.27;;
25409;SDS011;13339;50.840;4.346;2023-06-22T06:02:16;19.63;;;14.40;;
25409;SDS011;13339;50.840;4.346;2023-06-22T06:04:42;21.33;;;15.30;;
25409;SDS011;13339;50.840;4.346;2023-06-22T06:07:07;21.33;;;16.10;;
25409;SDS011;13339;50.840;4.346;2023-06-22T06:09:33;24.07;;;16.93;;
25409;SDS011;13339;50.840;4.346;2023-06-22T06:11:58;19.17;;;14.97;;
25409;SDS011;13339;50.840;4.346;2023-06-22T06:14:24;22.60;;;15.93;;
25409;SDS011;13339;50.840;4.346;2023-06-22T06:16:50;23.53;;;16.30;;
25409;SDS011;13339;50.840;4.346;2023-06-22T06:19:15;25.67;;;16.07;;
25409;SDS011;13339;50.840;4.346;2023-06-22T06:21:41;24.93;;;15.93;;
25409;SDS011;13339;50.840;4.346;2023-06-22T06:24:06;29.60;;;15.70;;
25409;SDS011;13339;50.840;4.346;2023-06-22T06:26:32;22.90;;;15.43;;
25409;SDS011;13339;50.840;4.346;2023-06-22T06:28:58;23.20;;;16.97;;
25409;SDS011;13339;50.840;4.346;2023-06-22T06:31:25;30.50;;;17.90;;
25409;SDS011;13339;50.840;4.346;2023-06-22T06:33:53;29.00;;;17.50;;
25409;SDS011;13339;50.840;4.346;2023-06-22T06:36:19;26.37;;;16.27;;
25409;SDS011;13339;50.840;4.346;2023-06-22T06:38:45;26.70;;;17.73;;
25409;SDS011;13339;50.840;4.346;2023-06-22T06:41:13;25.10;;;17.60;;
25409;SDS011;13339;50.840;4.346;2023-06-22T06:43:40;24.47;;;15.37;;
25409;SDS011;13339;50.840;4.346;2023-06-22T06:46:07;26.53;;;16.93;;
25409;SDS011;13339;50.840;4.346;2023-06-22T06:48:33;26.10;;;16.77;;
25409;SDS011;13339;50.840;4.346;2023-06-22T06:50:59;21.63;;;16.80;;
25409;SDS011;13339;50.840;4.346;2023-06-22T06:53:24;25.17;;;16.63;;
25409;SDS011;13339;50.840;4.346;2023-06-22T06:55:50;28.43;;;18.10;;
25409;SDS011;13339;50.840;4.346;2023-06-22T06:58:16;23.60;;;16.80;;
25409;SDS011;13339;50.840;4.346;2023-06-22T07:00:41;28.87;;;17.40;;
25409;SDS011;13339;50.840;4.346;2023-06-22T07:03:08;24.93;;;16.97;;
25409;SDS011;13339;50.840;4.346;2023-06-22T07:05:34;26.50;;;16.93;;
25409;SDS011;13339;50.840;4.346;2023-06-22T07:08:00;26.17;;;18.43;;
25409;SDS011;13339;50.840;4.346;2023-06-22T07:10:26;24.80;;;17.60;;
25409;SDS011;13339;50.840;4.346;2023-06-22T07:12:51;26.03;;;17.73;;
25409;SDS011;13339;50.840;4.346;2023-06-22T07:15:17;27.60;;;17.47;;
25409;SDS011;13339;50.840;4.346;2023-06-22T07:17:44;26.93;;;17.80;;
25409;SDS011;13339;50.840;4.346;2023-06-22T07:20:10;31.83;;;19.47;;
25409;SDS011;13339;50.840;4.346;2023-06-22T07:22:39;26.80;;;17.43;;
25409;SDS011;13339;50.840;4.346;2023-06-22T07:25:07;26.90;;;17.30;;
25409;SDS011;13339;50.840;4.346;2023-06-22T07:27:39;27.00;;;17.40;;
25409;SDS011;13339;50.840;4.346;2023-06-22T07:30:09;23.77;;;18.00;;
25409;SDS011;13339;50.840;4.346;2023-06-22T07:32:35;23.00;;;17.83;;
25409;SDS011;13339;50.840;4.346;2023-06-22T07:35:01;26.57;;;18.40;;
25409;SDS011;13339;50.840;4.346;2023-06-22T07:37:27;24.27;;;17.63;;
25409;SDS011;13339;50.840;4.346;2023-06-22T07:39:54;25.53;;;17.63;;
25409;SDS011;13339;50.840;4.346;2023-06-22T07:42:23;23.73;;;16.90;;
25409;SDS011;13339;50.840;4.346;2023-06-22T07:44:53;24.57;;;16.83;;
25409;SDS011;13339;50.840;4.346;2023-06-22T07:47:19;26.17;;;17.17;;
25409;SDS011;13339;50.840;4.346;2023-06-22T07:49:46;23.47;;;18.13;;
25409;SDS011;13339;50.840;4.346;2023-06-22T07:52:11;23.27;;;17.10;;
25409;SDS011;13339;50.840;4.346;2023-06-22T07:54:37;19.73;;;15.97;;
25409;SDS011;13339;50.840;4.346;2023-06-22T07:57:03;23.40;;;16.07;;
25409;SDS011;13339;50.840;4.346;2023-06-22T07:59:29;23.80;;;16.00;;
25409;SDS011;13339;50.840;4.346;2023-06-22T08:01:55;25.27;;;16.83;;
25409;SDS011;13339;50.840;4.346;2023-06-22T08:04:20;20.17;;;16.43;;
25409;SDS011;13339;50.840;4.346;2023-06-22T08:06:46;20.47;;;16.30;;
25409;SDS011;13339;50.840;4.346;2023-06-22T08:09:12;27.40;;;16.90;;
25409;SDS011;13339;50.840;4.346;2023-06-22T08:11:37;23.10;;;16.33;;
25409;SDS011;13339;50.840;4.346;2023-06-22T08:14:03;23.17;;;17.30;;
25409;SDS011;13339;50.840;4.346;2023-06-22T08:16:28;22.27;;;16.00;;
25409;SDS011;13339;50.840;4.346;2023-06-22T08:18:54;24.47;;;16.27;;
25409;SDS011;13339;50.840;4.346;2023-06-22T08:21:20;21.60;;;16.17;;
25409;SDS011;13339;50.840;4.346;2023-06-22T08:23:45;22.23;;;17.60;;
25409;SDS011;13339;50.840;4.346;2023-06-22T08:26:11;23.20;;;17.20;;
25409;SDS011;13339;50.840;4.346;2023-06-22T08:28:36;21.67;;;16.67;;
25409;SDS011;13339;50.840;4.346;2023-06-22T08:31:02;21.47;;;16.33;;
25409;SDS011;13339;50.840;4.346;2023-06-22T08:33:29;26.43;;;17.63;;
25409;SDS011;13339;50.840;4.346;2023-06-22T08:35:55;25.83;;;16.93;;
25409;SDS011;13339;50.840;4.346;2023-06-22T08:38:21;26.60;;;17.53;;
25409;SDS011;13339;50.840;4.346;2023-06-22T08:40:47;23.83;;;17.57;;
25409;SDS011;13339;50.840;4.346;2023-06-22T08:43:13;30.83;;;17.67;;
25409;SDS011;13339;50.840;4.346;2023-06-22T08:45:39;23.20;;;18.40;;
25409;SDS011;13339;50.840;4.346;2023-06-22T08:48:04;19.77;;;16.93;;
25409;SDS011;13339;50.840;4.346;2023-06-22T08:50:30;24.33;;;17.70;;
25409;SDS011;13339;50.840;4.346;2023-06-22T08:52:56;26.57;;;17.67;;
25409;SDS011;13339;50.840;4.346;2023-06-22T08:55:22;24.57;;;17.57;;
25409;SDS011;13339;50.840;4.346;2023-06-22T08:57:47;26.87;;;16.90;;
25409;SDS011;13339;50.840;4.346;2023-06-22T09:00:13;25.70;;;18.03;;
25409;SDS011;13339;50.840;4.346;2023-06-22T09:02:44;27.17;;;18.67;;
25409;SDS011;13339;50.840;4.346;2023-06-22T09:05:10;23.23;;;17.43;;
25409;SDS011;13339;50.840;4.346;2023-06-22T09:07:36;20.87;;;17.50;;
25409;SDS011;13339;50.840;4.346;2023-06-22T09:10:01;23.50;;;16.97;;
25409;SDS011;13339;50.840;4.346;2023-06-22T09:12:29;23.93;;;17.03;;
25409;SDS011;13339;50.840;4.346;2023-06-22T09:14:56;22.27;;;16.40;;
25409;SDS011;13339;50.840;4.346;2023-06-22T09:17:22;30.27;;;16.93;;
25409;SDS011;13339;50.840;4.346;2023-06-22T09:19:47;18.87;;;16.57;;
25409;SDS011;13339;50.840;4.346;2023-06-22T09:22:13;31.07;;;17.83;;
25409;SDS011;13339;50.840;4.346;2023-06-22T09:24:39;22.93;;;17.83;;
25409;SDS011;13339;50.840;4.346;2023-06-22T09:27:05;27.87;;;18.43;;
25409;SDS011;13339;50.840;4.346;2023-06-22T09:29:31;21.67;;;17.37;;
25409;SDS011;13339;50.840;4.346;2023-06-22T09:31:58;20.30;;;17.23;;
25409;SDS011;13339;50.840;4.346;2023-06-22T09:34:24;29.87;;;18.40;;
25409;SDS011;13339;50.840;4.346;2023-06-22T09:36:50;25.00;;;18.27;;
25409;SDS011;13339;50.840;4.346;2023-06-22T09:39:17;22.40;;;17.30;;
25409;SDS011;13339;50.840;4.346;2023-06-22T09:41:43;22.83;;;18.07;;
25409;SDS011;13339;50.840;4.346;2023-06-22T09:44:09;31.57;;;19.23;;
25409;SDS011;13339;50.840;4.346;2023-06-22T09:46:34;28.67;;;19.43;;
25409;SDS011;13339;50.840;4.346;2023-06-22T09:49:00;30.80;;;19.70;;
25409;SDS011;13339;50.840;4.346;2023-06-22T09:51:26;27.93;;;19.80;;
25409;SDS011;13339;50.840;4.346;2023-06-22T09:53:51;24.77;;;17.30;;
25409;SDS011;13339;50.840;4.346;2023-06-22T09:56:20;26.57;;;18.70;;
25409;SDS011;13339;50.840;4.346;2023-06-22T09:58:46;24.40;;;17.30;;
25409;SDS011;13339;50.840;4.346;2023-06-22T10:01:12;22.43;;;16.80;;
25409;SDS011;13339;50.840;4.346;2023-06-22T10:03:41;27.50;;;18.37;;
25409;SDS011;13339;50.840;4.346;2023-06-22T10:06:06;23.50;;;17.57;;
25409;SDS011;13339;50.840;4.346;2023-06-22T10:08:32;21.03;;;18.13;;
25409;SDS011;13339;50.840;4.346;2023-06-22T10:10:58;23.83;;;18.30;;
25409;SDS011;13339;50.840;4.346;2023-06-22T10:13:24;25.63;;;19.60;;
25409;SDS011;13339;50.840;4.346;2023-06-22T10:15:49;29.10;;;21.33;;
25409;SDS011;13339;50.840;4.346;2023-06-22T10:18:17;26.57;;;20.40;;
25409;SDS011;13339;50.840;4.346;2023-06-22T10:20:43;27.73;;;21.13;;
25409;SDS011;13339;50.840;4.346;2023-06-22T10:23:10;24.20;;;19.13;;
25409;SDS011;13339;50.840;4.346;2023-06-22T10:25:35;26.97;;;19.97;;
25409;SDS011;13339;50.840;4.346;2023-06-22T10:28:01;23.00;;;19.53;;
25409;SDS011;13339;50.840;4.346;2023-06-22T10:30:27;24.13;;;20.00;;
25409;SDS011;13339;50.840;4.346;2023-06-22T10:32:55;27.13;;;21.17;;
25409;SDS011;13339;50.840;4.346;2023-06-22T10:35:22;26.57;;;20.93;;
25409;SDS011;13339;50.840;4.346;2023-06-22T10:37:48;22.43;;;19.27;;
25409;SDS011;13339;50.840;4.346;2023-06-22T10:40:15;27.33;;;20.00;;
25409;SDS011;13339;50.840;4.346;2023-06-22T10:42:42;24.53;;;20.17;;
25409;SDS011;13339;50.840;4.346;2023-06-22T10:45:08;23.27;;;19.23;;
25409;SDS011;13339;50.840;4.346;2023-06-22T10:47:34;27.30;;;20.53;;
25409;SDS011;13339;50.840;4.346;2023-06-22T10:50:00;26.60;;;20.70;;
25409;SDS011;13339;50.840;4.346;2023-06-22T10:52:26;30.27;;;23.03;;
25409;SDS011;13339;50.840;4.346;2023-06-22T10:54:52;31.33;;;24.17;;
25409;SDS011;13339;50.840;4.346;2023-06-22T10:57:18;29.87;;;23.00;;
25409;SDS011;13339;50.840;4.346;2023-06-22T10:59:43;34.57;;;25.90;;
25409;SDS011;13339;50.840;4.346;2023-06-22T11:02:09;37.30;;;26.37;;
25409;SDS011;13339;50.840;4.346;2023-06-22T11:04:35;35.47;;;27.83;;
25409;SDS011;13339;50.840;4.346;2023-06-22T11:07:00;33.03;;;25.57;;
25409;SDS011;13339;50.840;4.346;2023-06-22T11:09:26;36.63;;;27.57;;
25409;SDS011;13339;50.840;4.346;2023-06-22T11:11:52;36.80;;;28.53;;
25409;SDS011;13339;50.840;4.346;2023-06-22T11:14:21;38.97;;;28.30;;
25409;SDS011;13339;50.840;4.346;2023-06-22T11:16:47;39.67;;;29.40;;
25409;SDS011;13339;50.840;4.346;2023-06-22T11:19:12;35.43;;;29.03;;
25409;SDS011;13339;50.840;4.346;2023-06-22T11:21:38;40.77;;;29.63;;
25409;SDS011;13339;50.840;4.346;2023-06-22T11:24:04;35.27;;;25.67;;
25409;SDS011;13339;50.840;4.346;2023-06-22T11:26:30;36.93;;;29.40;;
25409;SDS011;13339;50.840;4.346;2023-06-22T11:28:57;34.53;;;27.73;;
25409;SDS011;13339;50.840;4.346;2023-06-22T11:31:23;36.60;;;27.63;;
25409;SDS011;13339;50.840;4.346;2023-06-22T11:33:48;35.73;;;24.97;;
25409;SDS011;13339;50.840;4.346;2023-06-22T11:36:14;36.70;;;26.47;;
25409;SDS011;13339;50.840;4.346;2023-06-22T11:38:40;31.80;;;25.43;;
25409;SDS011;13339;50.840;4.346;2023-06-22T11:41:07;29.23;;;25.53;;
25409;SDS011;13339;50.840;4.346;2023-06-22T11:43:33;28.50;;;25.07;;
25409;SDS011;13339;50.840;4.346;2023-06-22T11:45:59;31.93;;;24.67;;
25409;SDS011;13339;50.840;4.346;2023-06-22T11:48:29;30.57;;;23.13;;
25409;SDS011;13339;50.840;4.346;2023-06-22T11:50:54;29.40;;;23.50;;
25409;SDS011;13339;50.840;4.346;2023-06-22T11:53:20;28.47;;;22.73;;
25409;SDS011;13339;50.840;4.346;2023-06-22T11:55:47;26.47;;;22.70;;
25409;SDS011;13339;50.840;4.346;2023-06-22T11:58:14;29.30;;;23.67;;
25409;SDS011;13339;50.840;4.346;2023-06-22T12:00:39;27.97;;;22.80;;
25409;SDS011;13339;50.840;4.346;2023-06-22T12:03:06;33.13;;;23.77;;
25409;SDS011;13339;50.840;4.346;2023-06-22T12:05:32;27.50;;;23.70;;
25409;SDS011;13339;50.840;4.346;2023-06-22T12:07:58;32.80;;;24.80;;
25409;SDS011;13339;50.840;4.346;2023-06-22T12:10:24;31.53;;;24.40;;
25409;SDS011;13339;50.840;4.346;2023-06-22T12:12:51;29.90;;;24.87;;
25409;SDS011;13339;50.840;4.346;2023-06-22T12:15:17;29.10;;;23.67;;
25409;SDS011;13339;50.840;4.346;2023-06-22T12:17:42;30.23;;;24.47;;
25409;SDS011;13339;50.840;4.346;2023-06-22T12:20:08;32.67;;;24.50;;
25409;SDS011;13339;50.840;4.346;2023-06-22T12:22:35;33.67;;;23.63;;
25409;SDS011;13339;50.840;4.346;2023-06-22T12:25:02;33.23;;;25.30;;
25409;SDS011;13339;50.840;4.346;2023-06-22T12:27:28;32.23;;;24.23;;
25409;SDS011;13339;50.840;4.346;2023-06-22T12:29:55;30.40;;;24.70;;
25409;SDS011;13339;50.840;4.346;2023-06-22T12:32:21;32.60;;;26.27;;
25409;SDS011;13339;50.840;4.346;2023-06-22T12:34:47;34.20;;;25.47;;
25409;SDS011;13339;50.840;4.346;2023-06-22T12:37:12;35.37;;;27.70;;
25409;SDS011;13339;50.840;4.346;2023-06-22T12:39:40;33.10;;;27.53;;
25409;SDS011;13339;50.840;4.346;2023-06-22T12:42:06;31.87;;;27.70;;
25409;SDS011;13339;50.840;4.346;2023-06-22T12:44:33;33.00;;;27.40;;
25409;SDS011;13339;50.840;4.346;2023-06-22T12:46:59;37.40;;;29.53;;
25409;SDS011;13339;50.840;4.346;2023-06-22T12:49:25;39.50;;;30.53;;
25409;SDS011;13339;50.840;4.346;2023-06-22T12:51:50;38.27;;;29.67;;
25409;SDS011;13339;50.840;4.346;2023-06-22T12:54:19;38.27;;;29.63;;
25409;SDS011;13339;50.840;4.346;2023-06-22T12:56:44;36.93;;;29.93;;
25409;SDS011;13339;50.840;4.346;2023-06-22T12:59:10;42.27;;;31.23;;
25409;SDS011;13339;50.840;4.346;2023-06-22T13:01:36;42.70;;;31.83;;
25409;SDS011;13339;50.840;4.346;2023-06-22T13:04:02;40.20;;;30.97;;
25409;SDS011;13339;50.840;4.346;2023-06-22T13:06:28;44.27;;;33.17;;
25409;SDS011;13339;50.840;4.346;2023-06-22T13:08:56;41.90;;;33.93;;
25409;SDS011;13339;50.840;4.346;2023-06-22T13:11:21;44.60;;;34.40;;
25409;SDS011;13339;50.840;4.346;2023-06-22T13:13:47;44.03;;;35.80;;
25409;SDS011;13339;50.840;4.346;2023-06-22T13:16:12;42.30;;;34.00;;
25409;SDS011;13339;50.840;4.346;2023-06-22T13:18:38;42.60;;;33.53;;
25409;SDS011;13339;50.840;4.346;2023-06-22T13:21:04;41.73;;;32.90;;
25409;SDS011;13339;50.840;4.346;2023-06-22T13:23:30;44.20;;;33.53;;
25409;SDS011;13339;50.840;4.346;2023-06-22T13:25:57;48.93;;;36.57;;
25409;SDS011;13339;50.840;4.346;2023-06-22T13:28:23;44.70;;;35.80;;
25409;SDS011;13339;50.840;4.346;2023-06-22T13:30:48;44.83;;;33.40;;
25409;SDS011;13339;50.840;4.346;2023-06-22T13:33:14;44.60;;;36.03;;
25409;SDS011;13339;50.840;4.346;2023-06-22T13:35:40;42.33;;;34.10;;
25409;SDS011;13339;50.840;4.346;2023-06-22T13:38:09;45.33;;;34.57;;
25409;SDS011;13339;50.840;4.346;2023-06-22T13:40:35;38.67;;;31.17;;
25409;SDS011;13339;50.840;4.346;2023-06-22T13:43:01;52.30;;;35.30;;
25409;SDS011;13339;50.840;4.346;2023-06-22T13:45:26;42.73;;;33.77;;
25409;SDS011;13339;50.840;4.346;2023-06-22T13:47:52;41.33;;;31.83;;
25409;SDS011;13339;50.840;4.346;2023-06-22T13:50:18;45.67;;;32.33;;
25409;SDS011;13339;50.840;4.346;2023-06-22T13:52:44;42.93;;;30.93;;
25409;SDS011;13339;50.840;4.346;2023-06-22T13:55:09;40.73;;;32.17;;
25409;SDS011;13339;50.840;4.346;2023-06-22T13:57:35;40.77;;;30.40;;
25409;SDS011;13339;50.840;4.346;2023-06-22T14:00:03;38.87;;;31.47;;
25409;SDS011;13339;50.840;4.346;2023-06-22T14:02:30;43.20;;;33.13;;
25409;SDS011;13339;50.840;4.346;2023-06-22T14:04:56;42.73;;;33.60;;
25409;SDS011;13339;50.840;4.346;2023-06-22T14:07:22;43.27;;;33.47;;
25409;SDS011;13339;50.840;4.346;2023-06-22T14:09:50;41.30;;;32.87;;
25409;SDS011;13339;50.840;4.346;2023-06-22T14:12:15;39.50;;;31.70;;
25409;SDS011;13339;50.840;4.346;2023-06-22T14:14:43;42.60;;;32.20;;
25409;SDS011;13339;50.840;4.346;2023-06-22T14:17:08;37.40;;;31.27;;
25409;SDS011;13339;50.840;4.346;2023-06-22T14:19:35;39.37;;;32.93;;
25409;SDS011;13339;50.840;4.346;2023-06-22T14:22:00;38.90;;;32.40;;
25409;SDS011;13339;50.840;4.346;2023-06-22T14:24:26;47.17;;;33.90;;
25409;SDS011;13339;50.840;4.346;2023-06-22T14:26:52;40.53;;;32.00;;
25409;SDS011;13339;50.840;4.346;2023-06-22T14:29:17;40.67;;;31.97;;
25409;SDS011;13339;50.840;4.346;2023-06-22T14:31:46;38.10;;;32.40;;
25409;SDS011;13339;50.840;4.346;2023-06-22T14:34:12;39.27;;;31.83;;
25409;SDS011;13339;50.840;4.346;2023-06-22T14:36:38;40.10;;;32.43;;
25409;SDS011;13339;50.840;4.346;2023-06-22T14:39:04;42.80;;;32.83;;